Time;durP1;ratioP1;P1;durP2;ratioP2;P2;SDS_P1;SDS_P2;PMS_P1;PMS_P2;Temp;Humidity;BMP_temperature;BMP_pressure;BME280_temperature;BME280_humidity;BME280_pressure;Samples;Min_cycle;Max_cycle;Signal;HPM_P1;HPM_P2
2022/05/18 00:00:48;;;;;;;8.07;5.72;;;17.80;99.90;;;;;;5026908;28;20124;-76
2022/05/18 00:03:17;;;;;;;10.33;5.43;;;17.70;99.90;;;;;;5025632;28;20041;-76
2022/05/18 00:05:44;;;;;;;9.57;5.28;;;17.70;99.90;;;;;;5026277;28;20045;-76
2022/05/18 00:08:10;;;;;;;8.15;6.20;;;17.70;99.90;;;;;;5025975;28;20045;-75
2022/05/18 00:10:38;;;;;;;9.25;6.35;;;17.70;99.90;;;;;;5025819;28;20724;-75
2022/05/18 00:13:04;;;;;;;7.47;5.70;;;17.70;99.90;;;;;;5026064;28;20531;-75
2022/05/18 00:15:30;;;;;;;11.13;6.05;;;17.60;99.90;;;;;;5025997;28;20037;-75
2022/05/18 00:17:56;;;;;;;10.52;6.38;;;17.70;99.90;;;;;;5025649;28;20125;-76
2022/05/18 00:20:23;;;;;;;12.85;6.47;;;17.60;99.90;;;;;;5025980;28;20049;-76
2022/05/18 00:23:15;;;;;;;10.32;6.38;;;17.60;99.90;;;;;;5025586;28;20140;-76
2022/05/18 00:25:41;;;;;;;9.77;5.85;;;17.60;99.90;;;;;;5006658;28;20054;-75
2022/05/18 00:28:08;;;;;;;9.02;6.03;;;17.60;99.90;;;;;;5009133;28;20339;-76
2022/05/18 00:30:37;;;;;;;8.50;5.88;;;17.60;99.90;;;;;;4992452;28;20488;-76
2022/05/18 00:33:04;;;;;;;8.15;5.72;;;17.60;99.90;;;;;;5025763;28;20117;-76
2022/05/18 00:35:32;;;;;;;8.23;5.65;;;17.60;99.90;;;;;;5009494;28;20495;-75
2022/05/18 00:37:57;;;;;;;10.18;6.18;;;17.60;99.90;;;;;;5025928;28;20160;-76
2022/05/18 00:40:24;;;;;;;9.27;6.07;;;17.60;99.90;;;;;;5023444;28;20101;-75
2022/05/18 00:42:50;;;;;;;10.10;5.07;;;17.50;99.90;;;;;;5025828;28;20514;-76
2022/05/18 00:45:19;;;;;;;7.90;5.15;;;17.50;99.90;;;;;;5023222;28;20064;-74
2022/05/18 00:47:45;;;;;;;9.73;5.68;;;17.50;99.90;;;;;;5009353;28;20048;-75
2022/05/18 00:50:39;;;;;;;7.65;5.47;;;17.40;99.90;;;;;;5025348;28;20041;-75
2022/05/18 00:53:10;;;;;;;9.43;5.75;;;17.40;99.90;;;;;;5023438;28;20132;-75
2022/05/18 00:55:41;;;;;;;9.00;5.85;;;17.40;99.90;;;;;;5025425;28;20053;-75
2022/05/18 00:58:20;;;;;;;10.02;5.43;;;17.30;99.90;;;;;;5025565;28;20037;-75
2022/05/18 01:00:47;;;;;;;8.00;5.40;;;17.30;99.90;;;;;;5009277;28;20130;-75
2022/05/18 01:03:18;;;;;;;8.05;5.80;;;17.30;99.90;;;;;;5024035;28;20128;-75
2022/05/18 01:05:49;;;;;;;8.13;5.20;;;17.20;99.90;;;;;;5009285;28;20490;-75
2022/05/18 01:08:23;;;;;;;8.77;5.47;;;17.20;99.90;;;;;;5008044;28;20132;-75
2022/05/18 01:10:49;;;;;;;10.70;5.43;;;17.20;99.90;;;;;;5024046;28;20042;-76
2022/05/18 01:13:15;;;;;;;8.35;5.90;;;17.10;99.90;;;;;;5008920;28;20045;-75
2022/05/18 01:15:40;;;;;;;7.32;5.35;;;17.10;99.90;;;;;;5025241;28;20128;-75
2022/05/18 01:18:08;;;;;;;9.50;5.70;;;17.10;99.90;;;;;;4993176;28;20038;-75
2022/05/18 01:20:37;;;;;;;8.07;5.78;;;17.10;99.90;;;;;;4993274;28;20054;-76
2022/05/18 01:23:26;;;;;;;9.15;5.47;;;17.10;99.90;;;;;;5005273;28;20053;-75
2022/05/18 01:26:30;;;;;;;8.32;5.75;;;17.00;99.90;;;;;;5025748;28;20053;-75
2022/05/18 01:29:01;;;;;;;8.55;6.38;;;17.00;99.90;;;;;;4995003;28;20381;-75
2022/05/18 01:31:47;;;;;;;7.78;5.45;;;17.00;99.90;;;;;;5025452;28;20049;-75
2022/05/18 01:34:14;;;;;;;9.73;5.50;;;16.90;99.90;;;;;;5025889;28;20391;-75
2022/05/18 01:36:40;;;;;;;9.10;5.40;;;16.90;99.90;;;;;;5009118;28;20049;-75
2022/05/18 01:39:09;;;;;;;8.15;5.55;;;16.90;99.90;;;;;;5006501;28;20041;-75
2022/05/18 01:41:40;;;;;;;8.77;5.47;;;16.80;99.90;;;;;;5037556;28;20873;-75
2022/05/18 01:44:06;;;;;;;11.98;5.93;;;16.80;99.90;;;;;;5023196;28;20057;-75
2022/05/18 01:46:32;;;;;;;7.35;5.43;;;16.80;99.90;;;;;;5021087;28;20056;-75
2022/05/18 01:48:59;;;;;;;8.52;6.00;;;16.80;99.90;;;;;;5025177;28;20140;-75
2022/05/18 01:51:43;;;;;;;8.45;6.18;;;16.80;99.90;;;;;;5024370;28;20716;-75
2022/05/18 01:54:10;;;;;;;7.57;5.78;;;16.60;99.90;;;;;;5025300;28;20107;-75
2022/05/18 01:56:36;;;;;;;9.50;5.90;;;16.70;99.90;;;;;;4992170;28;20049;-75
2022/05/18 01:59:02;;;;;;;10.70;6.45;;;16.60;99.90;;;;;;5008435;28;20048;-75
2022/05/18 02:01:27;;;;;;;10.00;6.68;;;16.60;99.90;;;;;;5003198;28;20125;-75
2022/05/18 02:03:53;;;;;;;9.05;6.30;;;16.60;99.90;;;;;;4997797;28;20045;-75
2022/05/18 02:06:20;;;;;;;8.13;6.15;;;16.50;99.90;;;;;;5006627;28;20487;-75
2022/05/18 02:08:46;;;;;;;8.07;5.90;;;16.60;99.90;;;;;;5025317;28;20049;-74
2022/05/18 02:11:15;;;;;;;7.60;5.55;;;16.50;99.90;;;;;;5023625;28;20088;-75
2022/05/18 02:13:41;;;;;;;11.93;7.10;;;16.50;99.90;;;;;;5029653;28;20065;-75
2022/05/18 02:16:07;;;;;;;7.15;5.82;;;16.50;99.90;;;;;;5028325;28;20037;-74
2022/05/18 02:18:33;;;;;;;9.75;6.25;;;16.50;99.90;;;;;;5008200;28;20048;-75
2022/05/18 02:21:05;;;;;;;12.38;6.65;;;16.50;99.90;;;;;;5011401;28;20442;-74
2022/05/18 02:23:31;;;;;;;9.82;6.70;;;16.50;99.90;;;;;;5010268;28;20056;-75
2022/05/18 02:25:58;;;;;;;9.00;7.03;;;16.40;99.90;;;;;;5012028;28;20056;-75
2022/05/18 02:28:25;;;;;;;9.38;7.10;;;16.40;99.90;;;;;;5028045;28;20426;-74
2022/05/18 02:30:50;;;;;;;9.35;6.78;;;16.40;99.90;;;;;;5027971;28;20053;-75
2022/05/18 02:33:16;;;;;;;8.35;6.55;;;16.30;99.90;;;;;;5028365;28;20064;-74
2022/05/18 02:35:42;;;;;;;8.40;7.15;;;16.30;99.90;;;;;;5011832;28;20126;-74
2022/05/18 02:38:09;;;;;;;9.60;7.38;;;16.30;99.90;;;;;;4995096;28;20055;-74
2022/05/18 02:40:35;;;;;;;8.80;7.32;;;16.30;99.90;;;;;;5024041;28;20053;-74
2022/05/18 02:43:01;;;;;;;9.15;7.72;;;16.30;99.90;;;;;;5011490;28;20399;-75
2022/05/18 02:45:27;;;;;;;9.43;7.60;;;16.20;99.90;;;;;;5010475;28;20037;-75
2022/05/18 02:47:53;;;;;;;10.10;7.78;;;16.20;99.90;;;;;;4995699;28;20053;-74
2022/05/18 02:50:19;;;;;;;9.82;8.02;;;16.10;99.90;;;;;;5011954;28;20045;-75
2022/05/18 02:52:45;;;;;;;9.27;6.72;;;16.10;99.90;;;;;;5009973;28;20071;-75
2022/05/18 02:57:56;;;;;;;11.32;7.53;;;16.00;99.90;;;;;;5027701;28;20388;-75
2022/05/18 03:00:22;;;;;;;11.07;7.70;;;16.00;99.90;;;;;;5011428;28;20044;-75
2022/05/18 03:02:47;;;;;;;11.85;8.52;;;16.00;99.90;;;;;;5009606;28;20156;-75
2022/05/18 03:05:14;;;;;;;9.85;8.10;;;15.90;99.90;;;;;;5027778;28;20037;-74
2022/05/18 03:07:40;;;;;;;14.20;9.43;;;15.90;99.90;;;;;;5027701;28;20080;-74
2022/05/18 03:10:06;;;;;;;11.15;8.35;;;15.90;99.90;;;;;;5025555;28;20045;-75
2022/05/18 03:12:32;;;;;;;10.18;8.95;;;15.90;99.90;;;;;;5010225;28;20130;-75
2022/05/18 03:14:57;;;;;;;10.85;8.63;;;15.80;99.90;;;;;;5010875;28;20503;-75
2022/05/18 03:17:23;;;;;;;10.32;8.63;;;15.80;99.90;;;;;;5026774;28;20065;-75
2022/05/18 03:19:49;;;;;;;11.70;8.80;;;15.80;99.90;;;;;;5011655;28;20052;-75
2022/05/18 03:25:00;;;;;;;10.25;8.75;;;15.70;99.90;;;;;;5025528;28;20095;-75
2022/05/18 03:27:25;;;;;;;11.43;8.75;;;15.70;99.90;;;;;;5023932;28;20554;-75
2022/05/18 03:29:51;;;;;;;11.05;8.77;;;15.70;99.90;;;;;;5027587;28;20065;-75
2022/05/18 03:32:17;;;;;;;12.80;9.38;;;15.60;99.90;;;;;;5009789;28;20072;-75
2022/05/18 03:34:46;;;;;;;11.60;8.60;;;15.60;99.90;;;;;;5027323;28;20506;-75
2022/05/18 03:37:12;;;;;;;11.20;9.40;;;15.60;99.90;;;;;;5026931;28;20048;-75
2022/05/18 03:39:38;;;;;;;9.75;8.75;;;15.60;99.90;;;;;;5009704;28;20049;-75
2022/05/18 03:42:04;;;;;;;10.05;8.60;;;15.50;99.90;;;;;;5026764;28;20099;-75
2022/05/18 03:44:30;;;;;;;11.75;9.40;;;15.50;99.90;;;;;;5008538;28;20044;-74
2022/05/18 03:46:56;;;;;;;10.82;9.25;;;15.50;99.90;;;;;;5010029;28;20049;-75
2022/05/18 03:49:22;;;;;;;11.18;9.85;;;15.50;99.90;;;;;;5026491;28;20037;-75
2022/05/18 03:51:49;;;;;;;11.50;8.82;;;15.50;99.90;;;;;;5026585;28;20057;-75
2022/05/18 03:54:15;;;;;;;12.25;10.80;;;15.40;99.90;;;;;;5010580;28;20140;-75
2022/05/18 03:56:41;;;;;;;11.40;9.20;;;15.40;99.90;;;;;;5009510;28;20518;-75
2022/05/18 03:59:06;;;;;;;11.35;9.15;;;15.40;99.90;;;;;;5009872;28;20045;-75
2022/05/18 04:01:32;;;;;;;12.90;10.55;;;15.30;99.90;;;;;;5005626;28;20041;-75
2022/05/18 04:03:58;;;;;;;12.93;10.15;;;15.30;99.90;;;;;;5042832;28;20120;-75
2022/05/18 04:06:23;;;;;;;11.90;10.70;;;15.30;99.90;;;;;;5009855;28;20041;-75
2022/05/18 04:08:49;;;;;;;13.07;10.00;;;15.30;99.90;;;;;;5009153;28;20046;-75
2022/05/18 04:11:17;;;;;;;12.20;9.80;;;15.30;99.90;;;;;;5009617;28;20057;-75
2022/05/18 04:13:43;;;;;;;13.05;11.40;;;15.30;99.90;;;;;;5025867;28;20130;-75
2022/05/18 04:16:09;;;;;;;11.70;9.52;;;15.40;99.90;;;;;;5010358;28;20068;-75
2022/05/18 04:18:36;;;;;;;13.55;10.73;;;15.30;99.90;;;;;;5009798;28;20500;-75
2022/05/18 04:21:02;;;;;;;12.18;10.13;;;15.40;99.90;;;;;;5010109;28;20053;-75
2022/05/18 04:23:28;;;;;;;12.55;10.40;;;15.40;99.90;;;;;;5009394;28;20033;-74
2022/05/18 04:25:54;;;;;;;11.65;10.10;;;15.40;99.90;;;;;;5026025;28;20071;-75
2022/05/18 04:28:20;;;;;;;12.85;10.60;;;15.40;99.90;;;;;;5025100;28;20096;-74
2022/05/18 04:30:47;;;;;;;11.98;9.70;;;15.40;99.90;;;;;;5025523;28;20053;-75
2022/05/18 04:33:17;;;;;;;10.95;9.88;;;15.40;99.90;;;;;;4993422;28;20121;-74
2022/05/18 04:35:44;;;;;;;14.30;12.40;;;15.50;99.90;;;;;;5026601;28;20091;-75
2022/05/18 04:38:10;;;;;;;13.95;11.02;;;15.50;99.90;;;;;;5026539;28;20040;-75
2022/05/18 04:40:36;;;;;;;10.52;9.43;;;15.50;99.90;;;;;;5025077;28;20049;-75
2022/05/18 04:43:02;;;;;;;13.20;11.77;;;15.50;99.90;;;;;;5026573;28;20060;-75
2022/05/18 04:45:28;;;;;;;13.07;11.65;;;15.60;99.90;;;;;;4991029;28;20042;-75
2022/05/18 04:47:54;;;;;;;13.25;11.88;;;15.60;99.90;;;;;;5026464;28;20099;-75
2022/05/18 04:50:21;;;;;;;13.63;11.25;;;15.60;99.90;;;;;;5025817;28;20146;-75
2022/05/18 04:52:48;;;;;;;14.02;11.07;;;15.70;99.90;;;;;;5025442;28;20053;-75
2022/05/18 04:55:17;;;;;;;11.27;10.18;;;15.70;99.90;;;;;;5025983;28;20065;-75
2022/05/18 04:57:43;;;;;;;14.15;12.05;;;15.80;99.90;;;;;;5025450;28;20049;-74
2022/05/18 05:00:13;;;;;;;11.90;10.70;;;15.80;99.90;;;;;;5024545;28;20069;-74
2022/05/18 05:02:39;;;;;;;15.70;10.80;;;15.80;99.90;;;;;;5008602;28;20072;-73
2022/05/18 05:05:10;;;;;;;12.85;11.55;;;15.90;99.90;;;;;;5025628;28;20124;-73
2022/05/18 05:07:36;;;;;;;12.38;11.18;;;16.00;99.90;;;;;;5018359;28;20038;-73
2022/05/18 05:10:03;;;;;;;11.43;10.23;;;16.00;99.90;;;;;;5007647;28;20406;-73
2022/05/18 05:12:29;;;;;;;13.05;11.63;;;16.10;99.90;;;;;;5024953;28;20083;-74
2022/05/18 05:14:55;;;;;;;12.93;11.65;;;16.10;99.90;;;;;;4988218;28;20058;-73
2022/05/18 05:17:21;;;;;;;13.52;11.65;;;16.20;99.90;;;;;;5019260;28;20042;-74
2022/05/18 05:19:46;;;;;;;14.55;13.07;;;16.30;99.90;;;;;;5018615;28;20652;-74
2022/05/18 05:22:12;;;;;;;14.90;13.30;;;16.30;99.90;;;;;;4998170;28;20033;-74
2022/05/18 05:24:38;;;;;;;15.25;12.18;;;16.40;99.90;;;;;;5024811;28;20076;-74
2022/05/18 05:27:04;;;;;;;13.98;12.43;;;16.40;99.90;;;;;;5008603;28;20046;-73
2022/05/18 05:29:30;;;;;;;13.05;11.75;;;16.50;99.90;;;;;;5009411;28;20069;-75
2022/05/18 05:31:55;;;;;;;14.15;12.75;;;16.60;99.90;;;;;;5009010;28;20108;-73
2022/05/18 05:34:21;;;;;;;14.75;13.35;;;16.60;99.90;;;;;;4992346;28;20066;-74
2022/05/18 05:36:47;;;;;;;15.32;12.60;;;16.70;99.90;;;;;;5020782;28;20056;-73
2022/05/18 05:39:16;;;;;;;13.77;12.27;;;16.70;99.90;;;;;;4990321;28;20115;-73
2022/05/18 05:41:42;;;;;;;15.02;13.52;;;16.70;99.90;;;;;;5005948;28;20056;-73
2022/05/18 05:44:10;;;;;;;13.70;12.38;;;16.80;99.90;;;;;;4996740;28;20480;-70
2022/05/18 05:46:36;;;;;;;13.65;12.18;;;16.90;99.90;;;;;;5026958;28;20690;-69
2022/05/18 05:49:02;;;;;;;17.08;12.75;;;16.90;99.90;;;;;;5011504;28;20049;-69
2022/05/18 05:51:28;;;;;;;14.55;13.07;;;16.90;99.90;;;;;;4994456;28;20049;-69
2022/05/18 05:53:53;;;;;;;14.25;12.88;;;17.00;99.90;;;;;;5006145;28;20466;-68
2022/05/18 05:56:21;;;;;;;18.27;13.60;;;17.10;99.90;;;;;;5004788;28;20030;-68
2022/05/18 05:58:48;;;;;;;14.43;12.93;;;17.10;99.90;;;;;;5040615;28;20530;-69
2022/05/18 06:01:14;;;;;;;15.38;12.10;;;17.10;99.90;;;;;;5009025;28;20053;-69
2022/05/18 06:03:41;;;;;;;15.32;13.15;;;17.20;99.90;;;;;;5019224;28;20045;-68
2022/05/18 06:06:08;;;;;;;14.98;13.52;;;17.30;99.90;;;;;;5009841;28;20045;-69
2022/05/18 06:08:35;;;;;;;17.80;14.20;;;17.30;99.90;;;;;;5026557;28;20045;-69
2022/05/18 06:11:01;;;;;;;15.23;13.73;;;17.40;99.90;;;;;;5012891;28;20056;-69
2022/05/18 06:13:28;;;;;;;15.15;13.55;;;17.40;99.90;;;;;;5012834;28;20076;-68
2022/05/18 06:15:54;;;;;;;15.27;13.65;;;17.50;99.90;;;;;;5012792;28;20133;-69
2022/05/18 06:18:20;;;;;;;17.48;13.57;;;17.60;99.90;;;;;;5028297;28;20497;-69
2022/05/18 06:20:47;;;;;;;15.75;13.05;;;17.70;99.90;;;;;;5011967;28;20052;-68
2022/05/18 06:23:16;;;;;;;14.60;13.10;;;17.80;99.90;;;;;;4996054;28;20045;-69
2022/05/18 06:25:43;;;;;;;15.75;14.23;;;17.90;99.90;;;;;;5008964;28;20057;-69
2022/05/18 06:28:10;;;;;;;14.52;13.02;;;18.00;99.90;;;;;;5012446;28;20049;-69
2022/05/18 06:30:36;;;;;;;14.77;13.18;;;18.00;99.90;;;;;;5011364;28;20079;-69
2022/05/18 06:33:03;;;;;;;15.63;14.13;;;18.10;99.90;;;;;;5025296;28;20116;-69
2022/05/18 06:35:28;;;;;;;16.45;12.73;;;18.20;99.90;;;;;;5026025;28;20049;-69
2022/05/18 06:37:55;;;;;;;17.63;12.85;;;18.30;99.90;;;;;;4992506;28;20125;-69
2022/05/18 06:41:21;;;;;;;13.77;12.05;;;18.40;99.90;;;;;;5009079;28;21506;-69
2022/05/18 06:43:07;;;;;;;15.07;13.52;;;18.50;99.90;;;;;;5020590;28;20109;-69
2022/05/18 06:45:33;;;;;;;13.95;12.57;;;18.70;99.90;;;;;;5007319;28;20072;-69
2022/05/18 06:47:58;;;;;;;15.02;13.52;;;18.80;99.90;;;;;;4984782;28;20503;-69
2022/05/18 06:50:24;;;;;;;14.63;12.52;;;18.90;99.90;;;;;;5039236;28;20041;-69
2022/05/18 06:52:50;;;;;;;17.88;14.32;;;19.00;99.90;;;;;;5007008;28;20141;-71
2022/05/18 06:55:15;;;;;;;15.70;14.10;;;19.10;99.90;;;;;;4991365;28;20041;-71
2022/05/18 06:57:41;;;;;;;13.80;12.38;;;19.30;99.90;;;;;;5026345;28;20041;-70
2022/05/18 07:00:08;;;;;;;15.80;12.60;;;19.40;99.90;;;;;;5028308;28;20037;-71
2022/05/18 07:02:33;;;;;;;13.82;12.23;;;19.50;99.90;;;;;;5025420;28;20223;-71
2022/05/18 07:05:00;;;;;;;14.00;12.60;;;19.70;99.90;;;;;;5010370;28;20084;-71
2022/05/18 07:07:26;;;;;;;16.10;13.57;;;19.80;99.90;;;;;;5011295;28;20041;-70
2022/05/18 07:09:52;;;;;;;14.43;12.77;;;19.90;99.90;;;;;;5007461;28;20524;-71
2022/05/18 07:12:17;;;;;;;16.13;12.45;;;20.10;99.90;;;;;;5026994;28;20064;-71
2022/05/18 07:14:44;;;;;;;14.18;12.70;;;20.20;99.90;;;;;;5009526;28;20206;-71
2022/05/18 07:17:09;;;;;;;14.45;12.95;;;20.30;99.90;;;;;;5008736;28;20120;-71
2022/05/18 07:19:35;;;;;;;15.23;12.38;;;20.50;99.90;;;;;;5026093;28;20132;-71
2022/05/18 07:22:03;;;;;;;16.92;12.32;;;20.60;99.90;;;;;;4994343;28;20486;-71
2022/05/18 07:24:29;;;;;;;14.63;12.48;;;20.60;99.90;;;;;;4993251;28;20041;-71
2022/05/18 07:26:54;;;;;;;14.35;12.88;;;20.80;99.90;;;;;;5022172;28;20708;-71
2022/05/18 07:29:20;;;;;;;13.32;11.93;;;20.80;99.90;;;;;;5007717;28;20938;-71
2022/05/18 07:34:30;;;;;;;13.20;11.63;;;21.10;99.90;;;;;;5028113;28;20089;-71
2022/05/18 07:36:56;;;;;;;13.60;12.15;;;21.20;99.90;;;;;;5010717;28;20072;-71
2022/05/18 07:39:23;;;;;;;15.55;11.55;;;21.40;99.90;;;;;;5027425;28;20045;-71
2022/05/18 07:41:49;;;;;;;13.05;11.82;;;21.60;99.90;;;;;;5011115;28;20140;-71
2022/05/18 07:44:14;;;;;;;12.27;11.02;;;21.80;99.90;;;;;;5009307;28;20128;-72
2022/05/18 07:46:43;;;;;;;14.60;11.20;;;22.00;99.90;;;;;;5026166;28;20045;-72
2022/05/18 07:49:09;;;;;;;14.07;11.27;;;22.10;99.90;;;;;;5027026;28;20056;-72
2022/05/18 07:51:35;;;;;;;12.40;10.50;;;22.20;99.90;;;;;;4992654;28;20049;-71
2022/05/18 07:54:01;;;;;;;11.77;10.18;;;22.30;99.90;;;;;;4993419;28;20053;-72
2022/05/18 07:56:27;;;;;;;13.05;10.77;;;22.50;99.90;;;;;;5027011;28;20045;-72
2022/05/18 07:58:53;;;;;;;11.98;7.93;;;22.70;99.90;;;;;;4991420;28;20049;-72
2022/05/18 08:01:19;;;;;;;13.63;9.77;;;22.80;99.90;;;;;;5007471;28;20077;-71
2022/05/18 08:03:45;;;;;;;9.52;8.48;;;23.00;99.90;;;;;;5005867;28;20355;-72
2022/05/18 08:06:11;;;;;;;11.88;9.20;;;23.10;99.90;;;;;;5007035;28;20374;-71
2022/05/18 08:08:37;;;;;;;11.40;8.85;;;23.30;99.90;;;;;;5007286;28;20052;-72
2022/05/18 08:16:33;;;;;;;9.45;7.75;;;23.70;99.90;;;;;;5021221;28;20080;-72
2022/05/18 08:18:58;;;;;;;10.10;9.10;;;23.80;99.90;;;;;;5025775;28;20065;-71
2022/05/18 08:21:24;;;;;;;9.77;8.32;;;23.90;99.90;;;;;;5026187;28;20033;-73
2022/05/18 08:23:54;;;;;;;12.88;8.18;;;24.00;99.90;;;;;;5009582;28;20049;-72
2022/05/18 08:26:20;;;;;;;14.32;8.80;;;24.20;99.90;;;;;;5010061;28;20041;-72
2022/05/18 08:28:49;;;;;;;11.50;8.07;;;24.30;99.90;;;;;;5009480;28;20041;-72
2022/05/18 08:31:17;;;;;;;11.77;9.13;;;24.50;99.90;;;;;;5009990;28;20033;-72
2022/05/18 08:33:43;;;;;;;11.98;8.30;;;24.50;99.90;;;;;;5009863;28;20085;-72
2022/05/18 08:36:09;;;;;;;11.35;8.10;;;24.60;99.90;;;;;;5009469;28;20096;-72
2022/05/18 08:38:35;;;;;;;10.40;6.50;;;24.70;99.90;;;;;;5007654;28;20043;-71
2022/05/18 08:41:21;;;;;;;12.30;8.10;;;24.80;99.90;;;;;;5024096;28;20049;-72
2022/05/18 08:43:54;;;;;;;14.57;8.50;;;24.90;99.90;;;;;;5023895;28;20071;-72
2022/05/18 08:47:05;;;;;;;10.15;7.15;;;25.00;99.90;;;;;;5008977;28;20039;-72
2022/05/18 08:49:59;;;;;;;11.05;8.30;;;25.10;99.90;;;;;;5013896;28;20092;-72
2022/05/18 08:52:34;;;;;;;11.73;8.90;;;25.30;99.90;;;;;;5025944;28;20049;-72
2022/05/18 08:55:18;;;;;;;11.80;7.80;;;25.30;99.90;;;;;;5008926;28;20499;-72
2022/05/18 08:57:51;;;;;;;8.57;7.13;;;25.40;99.90;;;;;;5025183;28;20045;-72
2022/05/18 09:00:32;;;;;;;9.60;7.07;;;25.50;99.90;;;;;;5007456;28;20030;-73
2022/05/18 09:03:11;;;;;;;10.60;7.05;;;25.60;99.90;;;;;;5023603;28;20049;-72
2022/05/18 09:06:00;;;;;;;10.40;6.30;;;25.80;99.90;;;;;;5025627;28;20053;-72
2022/05/18 09:08:38;;;;;;;9.30;6.60;;;25.90;99.90;;;;;;5025792;28;20114;-72
2022/05/18 09:11:12;;;;;;;7.45;5.88;;;26.00;99.90;;;;;;5025838;28;20510;-72
2022/05/18 09:13:38;;;;;;;9.38;6.20;;;26.10;99.90;;;;;;5009703;28;20462;-72
2022/05/18 09:16:10;;;;;;;9.82;6.07;;;26.10;99.90;;;;;;4989017;28;20056;-72
2022/05/18 09:18:52;;;;;;;7.60;5.50;;;26.30;99.90;;;;;;5021340;28;20046;-72
2022/05/18 09:21:29;;;;;;;11.25;6.65;;;26.30;99.90;;;;;;5026217;28;20045;-73
2022/05/18 09:23:55;;;;;;;10.02;7.70;;;26.40;99.00;;;;;;5025462;28;20056;-72
2022/05/18 09:26:47;;;;;;;12.43;7.05;;;26.50;99.60;;;;;;5025435;28;20045;-72
2022/05/18 09:29:28;;;;;;;13.00;6.60;;;26.60;97.00;;;;;;5025405;28;20610;-71
2022/05/18 09:32:11;;;;;;;13.27;7.65;;;26.60;99.90;;;;;;5005763;28;20053;-72
2022/05/18 09:34:56;;;;;;;9.10;6.88;;;26.70;97.90;;;;;;5020498;28;20041;-72
2022/05/18 09:37:44;;;;;;;11.15;7.70;;;26.70;97.10;;;;;;5005675;28;20041;-72
2022/05/18 09:40:22;;;;;;;12.52;8.30;;;26.70;95.10;;;;;;5022508;28;20053;-72
2022/05/18 09:42:58;;;;;;;8.75;7.45;;;26.80;96.00;;;;;;5022556;28;20065;-72
2022/05/18 09:45:26;;;;;;;11.60;9.18;;;26.80;96.80;;;;;;5022682;28;20037;-71
2022/05/18 09:48:06;;;;;;;11.20;8.57;;;26.90;98.60;;;;;;5024724;28;20503;-72
2022/05/18 09:50:34;;;;;;;11.15;7.18;;;27.00;95.80;;;;;;5008995;28;20072;-72
2022/05/18 09:53:01;;;;;;;9.63;6.38;;;27.00;94.70;;;;;;5009004;28;20653;-72
2022/05/18 09:55:27;;;;;;;8.15;5.18;;;27.10;95.90;;;;;;5008670;28;20521;-72
2022/05/18 09:58:17;;;;;;;9.02;5.38;;;27.20;95.10;;;;;;5008387;28;20499;-72
2022/05/18 10:00:46;;;;;;;11.07;6.75;;;27.30;96.10;;;;;;5022560;28;20427;-72
2022/05/18 10:08:57;;;;;;;11.55;7.57;;;27.60;95.90;;;;;;5024697;28;20877;-72
2022/05/18 10:11:34;;;;;;;9.27;7.50;;;27.80;95.30;;;;;;5008529;28;20111;-72
2022/05/18 10:14:08;;;;;;;11.68;7.55;;;27.80;93.50;;;;;;5021115;28;20410;-72
2022/05/18 10:16:40;;;;;;;10.55;8.90;;;27.90;94.20;;;;;;5021487;28;20513;-72
2022/05/18 10:19:16;;;;;;;9.93;8.88;;;27.90;94.50;;;;;;5025079;28;20049;-72
2022/05/18 10:21:52;;;;;;;11.50;8.48;;;28.00;94.60;;;;;;5024917;28;20095;-72
2022/05/18 10:24:44;;;;;;;9.25;7.60;;;28.00;93.70;;;;;;5024803;28;20053;-73
2022/05/18 10:27:10;;;;;;;10.43;8.48;;;28.00;94.00;;;;;;5025023;28;20080;-72
2022/05/18 10:29:36;;;;;;;13.90;10.10;;;28.00;92.10;;;;;;5011619;28;20039;-73
2022/05/18 10:32:18;;;;;;;15.45;10.93;;;28.10;93.00;;;;;;5011550;28;20056;-72
2022/05/18 10:34:52;;;;;;;11.82;7.70;;;28.20;91.50;;;;;;5027220;28;20097;-72
2022/05/18 10:37:24;;;;;;;12.35;8.15;;;28.20;92.20;;;;;;5011426;28;20037;-72
2022/05/18 10:39:50;;;;;;;10.38;7.90;;;28.20;89.70;;;;;;5027859;28;20400;-73
2022/05/18 10:42:23;;;;;;;12.48;9.48;;;28.20;92.00;;;;;;5028299;28;20410;-72
2022/05/18 10:44:51;;;;;;;11.95;8.35;;;28.30;91.00;;;;;;5026346;28;20180;-73
2022/05/18 10:47:29;;;;;;;14.23;9.57;;;28.30;90.50;;;;;;5011369;28;20075;-73
2022/05/18 10:50:23;;;;;;;12.27;10.90;;;28.30;91.40;;;;;;5027533;28;20053;-73
2022/05/18 10:52:54;;;;;;;17.52;11.88;;;28.30;91.30;;;;;;5025785;28;20052;-73
2022/05/18 10:55:23;;;;;;;13.38;10.23;;;28.30;89.00;;;;;;5028135;28;20045;-72
2022/05/18 10:58:21;;;;;;;13.60;10.77;;;28.40;90.80;;;;;;5028337;28;20483;-72
2022/05/18 11:01:07;;;;;;;15.60;10.32;;;28.40;86.30;;;;;;5007077;28;20503;-73
2022/05/18 11:03:40;;;;;;;11.82;8.75;;;28.40;92.10;;;;;;5025770;28;20033;-73
2022/05/18 11:06:23;;;;;;;12.20;10.30;;;28.40;92.90;;;;;;5011379;28;20087;-72
2022/05/18 11:08:49;;;;;;;12.93;9.65;;;28.50;91.10;;;;;;5011670;28;20176;-72
2022/05/18 11:11:26;;;;;;;14.70;11.23;;;28.50;91.40;;;;;;5011282;28;20550;-72
2022/05/18 11:14:13;;;;;;;12.05;10.70;;;28.60;89.80;;;;;;5043233;28;20582;-72
2022/05/18 11:16:46;;;;;;;14.25;11.55;;;28.50;86.10;;;;;;5010678;28;20049;-72
2022/05/18 11:19:15;;;;;;;13.95;12.27;;;28.50;88.30;;;;;;5028175;28;20123;-73
2022/05/18 11:22:38;;;;;;;16.13;11.30;;;28.50;86.10;;;;;;5027326;28;20503;-73
2022/05/18 11:25:41;;;;;;;11.77;9.52;;;28.50;87.50;;;;;;5007825;28;20041;-72
2022/05/18 11:28:44;;;;;;;15.50;11.00;;;28.50;81.40;;;;;;5007659;28;20563;-72
2022/05/18 11:31:30;;;;;;;14.75;11.20;;;28.60;86.30;;;;;;5026390;28;20199;-73
2022/05/18 11:34:34;;;;;;;14.35;12.57;;;28.70;84.20;;;;;;5009907;28;20052;-73
2022/05/18 11:37:24;;;;;;;12.13;10.73;;;28.60;79.80;;;;;;4987557;28;20495;-72
2022/05/18 11:40:05;;;;;;;12.02;9.73;;;28.60;84.00;;;;;;5010541;28;20049;-72
2022/05/18 11:43:00;;;;;;;15.07;11.63;;;28.50;84.70;;;;;;5026788;28;20104;-72
2022/05/18 11:45:55;;;;;;;12.95;10.52;;;28.50;89.00;;;;;;5023505;28;20057;-73
2022/05/18 11:48:35;;;;;;;12.60;11.30;;;28.40;90.80;;;;;;5010321;28;20060;-72
2022/05/18 11:51:22;;;;;;;12.38;10.43;;;28.40;89.10;;;;;;5026571;28;20735;-72
2022/05/18 11:53:56;;;;;;;8.57;6.93;;;28.40;90.60;;;;;;5027311;28;20053;-73
2022/05/18 11:56:51;;;;;;;14.85;9.45;;;28.50;89.30;;;;;;5026747;28;20045;-73
2022/05/18 11:59:57;;;;;;;8.88;6.93;;;28.60;90.60;;;;;;5026879;28;20041;-72
2022/05/18 12:02:44;;;;;;;5.55;4.70;;;28.70;90.50;;;;;;5008824;28;20498;-72
2022/05/18 12:05:10;;;;;;;8.00;4.78;;;28.40;86.60;;;;;;5010096;28;20041;-73
2022/05/18 12:07:44;;;;;;;8.73;5.05;;;28.10;90.20;;;;;;5026576;28;20064;-73
2022/05/18 12:10:22;;;;;;;10.95;6.43;;;28.00;91.90;;;;;;5009933;28;20110;-72
2022/05/18 12:13:25;;;;;;;8.23;5.55;;;27.90;93.30;;;;;;5009736;28;20042;-72
2022/05/18 12:16:18;;;;;;;10.30;6.65;;;27.80;94.30;;;;;;4977349;28;20056;-72
2022/05/18 12:19:02;;;;;;;10.80;6.88;;;27.70;95.90;;;;;;5026354;28;20048;-73
2022/05/18 12:21:43;;;;;;;9.75;6.78;;;27.60;96.00;;;;;;5026073;28;20103;-72
2022/05/18 12:24:10;;;;;;;8.63;4.88;;;27.40;96.70;;;;;;5009801;28;20041;-72
2022/05/18 12:26:42;;;;;;;8.38;4.50;;;27.30;95.20;;;;;;5006442;28;20593;-71
2022/05/18 12:29:10;;;;;;;6.22;4.50;;;27.20;95.60;;;;;;5022732;28;20049;-71
2022/05/18 12:31:37;;;;;;;7.80;4.15;;;27.10;96.10;;;;;;5006780;28;20067;-72
2022/05/18 12:34:12;;;;;;;8.80;5.28;;;27.10;97.50;;;;;;5001312;28;21215;-70
2022/05/18 12:36:55;;;;;;;8.35;4.03;;;27.20;98.00;;;;;;5021884;28;20045;-70
2022/05/18 12:39:40;;;;;;;6.05;4.47;;;27.30;98.60;;;;;;5036071;28;20038;-70
2022/05/18 12:42:09;;;;;;;7.90;4.53;;;27.60;98.90;;;;;;5025670;28;20283;-70
2022/05/18 12:44:41;;;;;;;8.95;5.32;;;27.70;97.80;;;;;;5023006;28;20485;-71
2022/05/18 12:47:26;;;;;;;7.57;4.50;;;27.70;97.70;;;;;;5002825;28;20477;-71
2022/05/18 12:50:03;;;;;;;9.90;4.78;;;27.80;96.50;;;;;;5017800;28;20053;-70
2022/05/18 12:52:55;;;;;;;8.55;5.22;;;28.00;98.40;;;;;;5019564;28;20050;-70
2022/05/18 12:55:55;;;;;;;5.88;3.80;;;28.20;98.10;;;;;;5020852;28;20099;-70
2022/05/18 12:58:30;;;;;;;8.07;4.72;;;28.40;98.40;;;;;;4999323;28;20061;-71
2022/05/18 13:01:01;;;;;;;7.50;4.68;;;28.60;96.50;;;;;;5006300;28;20041;-71
2022/05/18 13:03:36;;;;;;;7.35;4.57;;;28.60;95.30;;;;;;5028957;28;20042;-71
2022/05/18 13:06:15;;;;;;;10.45;4.78;;;28.60;93.60;;;;;;5022210;28;20072;-70
2022/05/18 13:08:54;;;;;;;7.80;4.47;;;28.50;94.10;;;;;;5014342;28;20038;-70
2022/05/18 13:11:20;;;;;;;8.00;4.70;;;28.40;94.60;;;;;;5036970;28;20434;-71
2022/05/18 13:14:12;;;;;;;9.20;5.93;;;28.60;94.50;;;;;;5019085;28;20149;-71
2022/05/18 13:16:38;;;;;;;7.70;6.15;;;28.70;93.60;;;;;;4999160;28;21449;-71